createdAt,value
2017-07-18T00:01:33.067Z,18.60
2017-07-18T00:03:59.451Z,18.60
2017-07-18T00:06:25.844Z,18.60
2017-07-18T00:08:52.219Z,18.60
2017-07-18T00:11:18.627Z,18.70
2017-07-18T00:13:45.036Z,18.70
2017-07-18T00:16:11.408Z,18.60
2017-07-18T00:18:37.809Z,18.60
2017-07-18T00:21:04.175Z,18.60
2017-07-18T00:23:30.587Z,18.70
2017-07-18T00:25:56.958Z,18.70
2017-07-18T00:28:23.336Z,18.80
2017-07-18T00:30:49.827Z,18.80
2017-07-18T00:33:16.215Z,18.80
2017-07-18T00:35:42.598Z,18.80
2017-07-18T00:38:09.001Z,18.90
2017-07-18T00:40:35.382Z,18.90
2017-07-18T00:43:02.523Z,18.90
2017-07-18T00:45:29.669Z,18.90
2017-07-18T00:47:56.799Z,18.90
2017-07-18T00:50:23.160Z,18.90
2017-07-18T00:52:49.579Z,18.90
2017-07-18T00:55:15.967Z,19.00
2017-07-18T00:57:42.360Z,19.00
2017-07-18T01:00:09.524Z,19.00
2017-07-18T01:02:35.929Z,18.90
2017-07-18T01:05:03.077Z,19.00
2017-07-18T01:07:30.240Z,18.90
2017-07-18T01:09:57.343Z,18.90
2017-07-18T01:12:23.731Z,18.90
2017-07-18T01:14:50.128Z,18.90
2017-07-18T01:17:16.507Z,18.90
2017-07-18T01:19:42.891Z,18.90
2017-07-18T01:22:09.303Z,18.80
2017-07-18T01:24:35.692Z,18.80
2017-07-18T01:27:02.099Z,18.80
2017-07-18T01:29:28.456Z,18.80
2017-07-18T01:31:54.848Z,18.80
2017-07-18T01:34:21.249Z,18.80
2017-07-18T01:36:47.684Z,18.80
2017-07-18T01:39:14.098Z,18.80
2017-07-18T01:41:40.554Z,18.80
2017-07-18T01:44:06.972Z,18.80
2017-07-18T01:46:33.370Z,18.70
2017-07-18T01:49:00.519Z,18.70
2017-07-18T01:51:26.943Z,18.70
2017-07-18T01:53:54.182Z,18.70
2017-07-18T01:56:20.567Z,18.70
2017-07-18T01:58:47.007Z,18.70
2017-07-18T02:01:13.459Z,18.70
2017-07-18T02:03:39.914Z,18.70
2017-07-18T02:06:06.315Z,18.70
2017-07-18T02:08:32.739Z,18.70
2017-07-18T02:10:59.135Z,18.70
2017-07-18T02:13:26.272Z,18.70
2017-07-18T02:15:52.684Z,18.70
2017-07-18T02:18:20.675Z,18.60
2017-07-18T02:20:47.081Z,18.60
2017-07-18T02:23:13.475Z,18.60
2017-07-18T02:25:39.844Z,18.70
2017-07-18T02:28:06.252Z,18.60
2017-07-18T02:30:32.630Z,18.60
2017-07-18T02:32:59.752Z,18.70
2017-07-18T02:35:26.248Z,18.60
2017-07-18T02:37:52.611Z,18.70
2017-07-18T02:40:19.008Z,18.60
2017-07-18T02:42:45.405Z,18.60
2017-07-18T02:45:11.819Z,18.60
2017-07-18T02:47:38.219Z,18.50
2017-07-18T02:50:04.599Z,18.50
2017-07-18T02:52:31.785Z,18.30
2017-07-18T02:54:58.187Z,18.30
2017-07-18T02:57:24.567Z,18.30
2017-07-18T02:59:50.975Z,18.40
2017-07-18T03:02:18.120Z,18.30
2017-07-18T03:04:45.281Z,18.30
2017-07-18T03:07:11.687Z,18.20
2017-07-18T03:09:38.083Z,18.20
2017-07-18T03:12:04.600Z,18.10
2017-07-18T03:14:30.967Z,18.10
2017-07-18T03:16:57.336Z,18.10
2017-07-18T03:19:24.482Z,18.10
2017-07-18T03:21:51.591Z,18.00
2017-07-18T03:24:41.008Z,18.00
2017-07-18T03:27:08.134Z,17.90
2017-07-18T03:29:34.554Z,17.90
2017-07-18T03:32:01.740Z,17.90
2017-07-18T03:34:28.909Z,17.90
2017-07-18T03:36:55.300Z,17.90
2017-07-18T03:39:21.811Z,17.90
2017-07-18T03:41:48.182Z,17.80
2017-07-18T03:44:15.297Z,17.80
2017-07-18T03:46:41.688Z,17.80
2017-07-18T03:49:08.077Z,17.80
2017-07-18T03:51:34.444Z,17.80
2017-07-18T03:54:00.869Z,17.80
2017-07-18T03:56:27.989Z,17.80
2017-07-18T03:58:54.363Z,17.80
2017-07-18T04:01:20.788Z,17.90
2017-07-18T04:03:47.192Z,17.90
2017-07-18T04:06:13.579Z,17.90
2017-07-18T04:08:39.952Z,17.90
2017-07-18T04:11:06.714Z,17.90
2017-07-18T04:13:33.840Z,17.90
2017-07-18T04:16:00.228Z,17.90
2017-07-18T04:18:26.636Z,17.90
2017-07-18T04:20:53.033Z,17.90
2017-07-18T04:23:19.527Z,17.90
2017-07-18T04:25:45.891Z,17.90
2017-07-18T04:28:12.252Z,17.90
2017-07-18T04:30:39.392Z,17.90
2017-07-18T04:33:05.800Z,17.90
2017-07-18T04:35:32.236Z,17.90
2017-07-18T04:37:58.616Z,17.90
2017-07-18T04:40:25.048Z,17.90
2017-07-18T04:42:51.484Z,17.90
2017-07-18T04:45:17.889Z,18.00
2017-07-18T04:47:45.027Z,18.10
2017-07-18T04:50:11.460Z,18.00
2017-07-18T04:52:37.872Z,18.10
2017-07-18T04:55:04.286Z,18.10
2017-07-18T04:57:30.653Z,18.10
2017-07-18T04:59:57.050Z,18.20
2017-07-18T05:02:23.511Z,18.20
2017-07-18T05:04:50.016Z,18.30
2017-07-18T05:07:16.406Z,18.40
2017-07-18T05:09:43.562Z,18.40
2017-07-18T05:12:11.636Z,18.50
2017-07-18T05:14:38.365Z,18.50
2017-07-18T05:17:04.902Z,18.40
2017-07-18T05:19:31.451Z,18.40
2017-07-18T05:21:57.872Z,18.50
2017-07-18T05:24:39.980Z,18.50
2017-07-18T05:27:07.096Z,18.50
2017-07-18T05:29:33.483Z,18.50
2017-07-18T05:31:59.952Z,18.50
2017-07-18T05:34:26.352Z,18.60
2017-07-18T05:36:52.702Z,18.60
2017-07-18T05:39:19.128Z,18.70
2017-07-18T05:41:45.534Z,18.60
2017-07-18T05:44:11.948Z,18.70
2017-07-18T05:46:38.314Z,18.80
2017-07-18T05:49:04.748Z,18.80
2017-07-18T05:51:31.119Z,18.90
2017-07-18T05:53:57.488Z,19.00
2017-07-18T05:56:23.900Z,19.00
2017-07-18T05:58:50.271Z,19.10
2017-07-18T06:01:16.699Z,19.20
2017-07-18T06:03:43.128Z,19.30
2017-07-18T06:06:09.510Z,19.40
2017-07-18T06:08:35.959Z,19.40
2017-07-18T06:11:03.104Z,19.60
2017-07-18T06:13:29.499Z,19.60
2017-07-18T06:15:55.907Z,19.70
2017-07-18T06:18:22.281Z,19.70
2017-07-18T06:20:48.683Z,19.80
2017-07-18T06:23:15.066Z,19.80
2017-07-18T06:25:41.431Z,19.90
2017-07-18T06:28:07.836Z,19.90
2017-07-18T06:30:34.230Z,20.00
2017-07-18T06:33:00.603Z,20.00
2017-07-18T06:35:27.787Z,20.20
2017-07-18T06:37:54.180Z,20.20
2017-07-18T06:40:20.556Z,20.20
2017-07-18T06:42:46.956Z,20.20
2017-07-18T06:45:14.100Z,20.40
2017-07-18T06:47:41.218Z,20.50
2017-07-18T06:50:07.612Z,20.50
2017-07-18T06:52:34.004Z,20.60
2017-07-18T06:55:00.393Z,20.70
2017-07-18T06:57:26.799Z,20.70
2017-07-18T06:59:53.196Z,20.80
2017-07-18T07:02:19.599Z,20.90
2017-07-18T07:04:46.020Z,21.00
2017-07-18T07:07:12.392Z,21.10
2017-07-18T07:09:38.766Z,21.20
2017-07-18T07:12:05.172Z,21.40
2017-07-18T07:14:32.315Z,21.60
2017-07-18T07:16:58.703Z,21.50
2017-07-18T07:19:25.091Z,21.70
2017-07-18T07:21:52.254Z,21.80
2017-07-18T07:24:18.648Z,21.80
2017-07-18T07:26:45.012Z,21.90
2017-07-18T07:29:12.147Z,22.10
2017-07-18T07:31:38.528Z,22.10
2017-07-18T07:34:04.920Z,22.20
2017-07-18T07:36:31.324Z,22.20
2017-07-18T07:38:57.734Z,22.30
2017-07-18T07:41:24.107Z,22.30
2017-07-18T07:43:51.239Z,22.50
2017-07-18T07:46:17.659Z,22.40
2017-07-18T07:48:44.059Z,22.50
2017-07-18T07:51:10.460Z,22.50
2017-07-18T07:53:37.647Z,22.60
2017-07-18T07:56:04.031Z,22.60
2017-07-18T07:58:30.406Z,22.70
2017-07-18T08:00:56.812Z,22.80
2017-07-18T08:03:23.968Z,22.90
2017-07-18T08:05:51.082Z,23.00
2017-07-18T08:08:17.486Z,23.00
2017-07-18T08:10:44.004Z,23.10
2017-07-18T08:13:10.438Z,23.30
2017-07-18T08:15:36.818Z,23.40
2017-07-18T08:18:03.240Z,23.50
2017-07-18T08:20:29.600Z,23.60
2017-07-18T08:22:56.719Z,23.80
2017-07-18T08:25:23.110Z,23.70
2017-07-18T08:27:49.472Z,23.90
2017-07-18T08:30:15.899Z,23.90
2017-07-18T08:32:42.275Z,24.00
2017-07-18T08:35:08.699Z,24.00
2017-07-18T08:37:35.072Z,24.10
2017-07-18T08:40:01.455Z,24.10
2017-07-18T08:42:27.874Z,24.20
2017-07-18T08:44:54.254Z,24.20
2017-07-18T08:47:20.614Z,24.20
2017-07-18T08:49:47.003Z,24.30
2017-07-18T08:52:14.123Z,24.40
2017-07-18T08:54:40.559Z,24.40
2017-07-18T08:57:07.698Z,24.50
2017-07-18T08:59:34.134Z,24.50
2017-07-18T09:02:00.509Z,24.60
2017-07-18T09:04:26.887Z,24.60
2017-07-18T09:06:53.315Z,24.60
2017-07-18T09:09:19.712Z,24.80
2017-07-18T09:11:46.095Z,24.80
2017-07-18T09:14:12.520Z,24.90
2017-07-18T09:16:38.915Z,24.90
2017-07-18T09:19:05.319Z,25.00
2017-07-18T09:21:32.494Z,25.00
2017-07-18T09:23:58.903Z,25.00
2017-07-18T09:26:26.028Z,25.20
2017-07-18T09:28:52.644Z,25.10
2017-07-18T09:31:19.845Z,25.40
2017-07-18T09:33:46.999Z,25.50
2017-07-18T09:36:13.420Z,25.50
2017-07-18T09:38:39.806Z,25.50
2017-07-18T09:41:06.208Z,25.60
2017-07-18T09:43:32.610Z,25.60
2017-07-18T09:45:59.012Z,25.70
2017-07-18T09:48:25.404Z,25.80
2017-07-18T09:50:51.821Z,25.80
2017-07-18T09:53:18.967Z,26.00
2017-07-18T09:55:45.364Z,26.00
2017-07-18T09:58:11.776Z,26.00
2017-07-18T10:00:38.202Z,26.10
2017-07-18T10:03:04.650Z,26.10
2017-07-18T10:05:31.033Z,26.10
2017-07-18T10:07:58.175Z,26.20
2017-07-18T10:10:24.580Z,26.20
2017-07-18T10:12:50.959Z,26.30
2017-07-18T10:15:17.359Z,26.30
2017-07-18T10:17:43.742Z,26.40
2017-07-18T10:20:10.176Z,26.40
2017-07-18T10:22:36.576Z,26.40
2017-07-18T10:25:03.715Z,26.70
2017-07-18T10:27:30.091Z,26.70
2017-07-18T10:29:56.503Z,26.80
2017-07-18T10:32:22.883Z,26.80
2017-07-18T10:34:49.263Z,27.00
2017-07-18T10:37:15.659Z,27.10
2017-07-18T10:39:42.042Z,27.10
2017-07-18T10:42:08.465Z,27.10
2017-07-18T10:44:34.884Z,27.00
2017-07-18T10:47:02.040Z,27.10
2017-07-18T10:49:29.159Z,27.20
2017-07-18T10:51:55.540Z,27.20
2017-07-18T10:54:21.961Z,27.20
2017-07-18T10:56:48.360Z,27.30
2017-07-18T10:59:14.736Z,27.30
2017-07-18T11:01:41.111Z,27.40
2017-07-18T11:04:07.532Z,27.40
2017-07-18T11:06:33.932Z,27.60
2017-07-18T11:09:00.331Z,27.60
2017-07-18T11:11:26.741Z,27.60
2017-07-18T11:13:53.144Z,27.60
2017-07-18T11:16:19.523Z,27.60
2017-07-18T11:18:46.036Z,27.70
2017-07-18T11:21:12.395Z,27.80
2017-07-18T11:23:39.538Z,27.90
2017-07-18T11:26:05.943Z,27.80
2017-07-18T11:28:32.338Z,28.00
2017-07-18T11:30:59.200Z,28.10
2017-07-18T11:33:25.706Z,28.20
2017-07-18T11:35:52.334Z,28.20
2017-07-18T11:38:18.716Z,28.10
2017-07-18T11:40:45.091Z,28.20
2017-07-18T11:43:11.595Z,28.40
2017-07-18T11:45:38.007Z,28.40
2017-07-18T11:48:04.384Z,28.40
2017-07-18T11:50:30.775Z,28.50
2017-07-18T11:52:57.152Z,28.50
2017-07-18T11:55:24.292Z,28.70
2017-07-18T11:57:50.687Z,28.60
2017-07-18T12:00:17.095Z,28.80
2017-07-18T12:02:43.479Z,28.90
2017-07-18T12:05:09.884Z,29.00
2017-07-18T12:07:36.596Z,29.20
2017-07-18T12:10:03.111Z,29.20
2017-07-18T12:12:29.635Z,29.40
2017-07-18T12:14:56.204Z,29.40
2017-07-18T12:17:22.619Z,29.50
2017-07-18T12:19:49.892Z,29.70
2017-07-18T12:22:16.342Z,29.70
2017-07-18T12:24:42.756Z,29.90
2017-07-18T12:27:09.279Z,30.00
2017-07-18T12:29:36.404Z,30.00
2017-07-18T12:32:02.784Z,30.10
2017-07-18T12:34:29.348Z,30.10
2017-07-18T12:36:55.740Z,30.10
2017-07-18T12:39:22.156Z,30.10
2017-07-18T12:41:49.308Z,30.30
2017-07-18T12:44:15.691Z,30.30
2017-07-18T12:46:42.098Z,30.40
2017-07-18T12:49:08.504Z,30.60
2017-07-18T12:51:35.607Z,31.00
2017-07-18T12:54:02.058Z,30.90
2017-07-18T12:56:28.443Z,31.00
2017-07-18T12:58:54.823Z,30.90
2017-07-18T13:01:21.236Z,31.10
2017-07-18T13:03:47.614Z,31.20
2017-07-18T13:06:14.723Z,31.60
2017-07-18T13:08:41.135Z,31.60
2017-07-18T13:11:07.512Z,31.70
2017-07-18T13:13:34.663Z,31.50
2017-07-18T13:16:01.096Z,31.50
2017-07-18T13:18:28.208Z,31.40
2017-07-18T13:20:54.715Z,31.40
2017-07-18T13:23:21.107Z,31.50
2017-07-18T13:25:47.484Z,31.60
2017-07-18T13:28:13.906Z,31.90
2017-07-18T13:30:40.304Z,32.20
2017-07-18T13:33:07.421Z,32.40
2017-07-18T13:35:33.802Z,32.40
2017-07-18T13:38:00.207Z,32.70
2017-07-18T13:40:26.596Z,32.70
2017-07-18T13:42:52.978Z,32.70
2017-07-18T13:45:19.388Z,33.00
2017-07-18T13:47:45.767Z,33.00
2017-07-18T13:50:12.172Z,33.00
2017-07-18T13:52:38.543Z,32.80
2017-07-18T13:55:04.955Z,32.70
2017-07-18T13:57:32.072Z,32.40
2017-07-18T13:59:58.455Z,32.50
2017-07-18T14:02:24.884Z,32.70
2017-07-18T14:04:51.264Z,32.50
2017-07-18T14:07:17.640Z,32.50
2017-07-18T14:09:44.060Z,32.60
2017-07-18T14:12:11.195Z,32.50
2017-07-18T14:14:37.594Z,32.40
2017-07-18T14:17:03.975Z,32.40
2017-07-18T14:19:31.215Z,32.60
2017-07-18T14:21:57.591Z,32.60
2017-07-18T14:24:23.967Z,32.70
2017-07-18T14:26:50.363Z,32.40
2017-07-18T14:29:16.740Z,32.30
2017-07-18T14:31:43.152Z,32.30
2017-07-18T14:34:09.560Z,32.20
2017-07-18T14:36:35.935Z,32.30
2017-07-18T14:39:02.414Z,32.20
2017-07-18T14:41:28.828Z,32.30
2017-07-18T14:43:55.235Z,32.40
2017-07-18T14:46:21.747Z,32.30
2017-07-18T14:48:48.119Z,32.40
2017-07-18T14:51:15.479Z,32.00
2017-07-18T14:53:41.860Z,31.90
2017-07-18T14:56:08.251Z,31.90
2017-07-18T14:58:34.638Z,32.00
2017-07-18T15:01:01.011Z,32.00
2017-07-18T15:03:27.443Z,31.80
2017-07-18T15:05:53.825Z,31.50
2017-07-18T15:08:20.234Z,31.20
2017-07-18T15:10:46.624Z,31.20
2017-07-18T15:13:13.131Z,31.00
2017-07-18T15:15:39.511Z,30.80
2017-07-18T15:18:05.922Z,30.90
2017-07-18T15:20:33.062Z,30.60
2017-07-18T15:22:59.463Z,30.60
2017-07-18T15:25:25.867Z,30.50
2017-07-18T15:27:52.255Z,30.30
2017-07-18T15:30:18.724Z,30.30
2017-07-18T15:32:45.198Z,30.50
2017-07-18T15:35:11.596Z,30.40
2017-07-18T15:37:38.160Z,30.30
2017-07-18T15:40:04.647Z,30.00
2017-07-18T15:42:31.852Z,29.70
2017-07-18T15:44:58.327Z,29.70
2017-07-18T15:47:24.792Z,29.60
2017-07-18T15:49:51.207Z,29.50
2017-07-18T15:52:17.664Z,29.50
2017-07-18T15:54:44.096Z,29.40
2017-07-18T15:57:10.462Z,29.40
2017-07-18T15:59:37.142Z,29.40
2017-07-18T16:02:03.558Z,29.40
2017-07-18T16:04:30.028Z,29.20
2017-07-18T16:06:56.463Z,29.10
2017-07-18T16:09:22.902Z,29.00
2017-07-18T16:11:49.316Z,28.90
2017-07-18T16:14:15.812Z,29.00
2017-07-18T16:16:42.219Z,28.90
2017-07-18T16:19:08.908Z,28.70
2017-07-18T16:21:36.117Z,28.60
2017-07-18T16:24:03.363Z,28.50
2017-07-18T16:26:29.782Z,28.50
2017-07-18T16:28:56.158Z,28.60
2017-07-18T16:31:22.637Z,28.60
2017-07-18T16:33:49.111Z,28.50
2017-07-18T16:36:15.599Z,28.40
2017-07-18T16:38:42.091Z,28.40
2017-07-18T16:41:08.657Z,28.40
2017-07-18T16:43:35.121Z,28.40
2017-07-18T16:46:01.643Z,28.30
2017-07-18T16:48:28.071Z,28.20
2017-07-18T16:50:54.459Z,28.20
2017-07-18T16:53:20.986Z,28.10
2017-07-18T16:55:54.389Z,28.00
2017-07-18T16:58:20.778Z,27.90
2017-07-18T17:00:47.196Z,27.90
2017-07-18T17:03:13.668Z,27.80
2017-07-18T17:05:40.064Z,27.90
2017-07-18T17:08:06.684Z,27.90
2017-07-18T17:10:33.805Z,27.60
2017-07-18T17:13:00.359Z,27.60
2017-07-18T17:15:26.759Z,27.40
2017-07-18T17:17:53.182Z,27.30
2017-07-18T17:20:19.576Z,27.40
2017-07-18T17:22:46.018Z,27.40
2017-07-18T17:25:12.824Z,27.40
2017-07-18T17:27:40.005Z,27.40
2017-07-18T17:30:06.693Z,27.40
2017-07-18T17:32:33.208Z,27.40
2017-07-18T17:34:59.620Z,27.30
2017-07-18T17:37:26.034Z,27.30
2017-07-18T17:39:52.427Z,27.30
2017-07-18T17:42:18.846Z,27.30
2017-07-18T17:44:45.234Z,27.30
2017-07-18T17:47:11.616Z,27.10
2017-07-18T17:49:38.018Z,26.90
2017-07-18T17:52:04.435Z,26.90
2017-07-18T17:54:30.919Z,26.90
2017-07-18T17:56:57.299Z,26.90
2017-07-18T17:59:23.668Z,26.80
2017-07-18T18:01:50.087Z,26.70
2017-07-18T18:04:16.511Z,26.60
2017-07-18T18:06:42.943Z,26.60
2017-07-18T18:09:09.367Z,26.60
2017-07-18T18:11:35.755Z,26.50
2017-07-18T18:14:02.242Z,26.40
2017-07-18T18:16:28.671Z,26.30
2017-07-18T18:18:55.092Z,26.30
2017-07-18T18:21:21.495Z,26.20
2017-07-18T18:23:47.952Z,26.20
2017-07-18T18:26:14.464Z,26.10
2017-07-18T18:28:40.959Z,26.00
2017-07-18T18:31:07.377Z,25.90
2017-07-18T18:33:33.855Z,25.90
2017-07-18T18:36:00.255Z,25.80
2017-07-18T18:38:26.635Z,25.70
2017-07-18T18:40:53.035Z,25.60
2017-07-18T18:43:19.439Z,25.50
2017-07-18T18:45:45.864Z,25.50
2017-07-18T18:48:12.248Z,25.40
2017-07-18T18:50:38.627Z,25.30
2017-07-18T18:53:05.203Z,25.30
2017-07-18T18:55:31.708Z,25.20
2017-07-18T18:57:58.166Z,25.10
2017-07-18T19:00:24.644Z,25.00
2017-07-18T19:02:51.136Z,25.00
2017-07-18T19:05:17.599Z,24.90
2017-07-18T19:07:44.016Z,24.90
2017-07-18T19:10:11.262Z,24.80
2017-07-18T19:12:37.736Z,24.70
2017-07-18T19:15:04.272Z,24.60
2017-07-18T19:17:30.684Z,24.60
2017-07-18T19:19:57.851Z,24.40
2017-07-18T19:22:24.279Z,24.40
2017-07-18T19:24:51.404Z,24.30
2017-07-18T19:27:17.844Z,24.20
2017-07-18T19:29:44.352Z,24.20
2017-07-18T19:32:10.780Z,24.20
2017-07-18T19:34:37.172Z,24.10
2017-07-18T19:37:03.592Z,24.00
2017-07-18T19:39:30.704Z,24.00
2017-07-18T19:41:57.142Z,23.90
2017-07-18T19:44:23.555Z,23.90
2017-07-18T19:46:49.991Z,23.90
2017-07-18T19:49:17.147Z,23.80
2017-07-18T19:51:43.563Z,23.80
2017-07-18T19:54:09.987Z,23.70
2017-07-18T19:56:36.517Z,23.70
2017-07-18T19:59:02.991Z,23.60
2017-07-18T20:01:29.371Z,23.60
2017-07-18T20:03:55.999Z,23.60
2017-07-18T20:06:23.219Z,23.50
2017-07-18T20:08:49.877Z,23.50
2017-07-18T20:11:16.319Z,23.50
2017-07-18T20:13:43.524Z,23.40
2017-07-18T20:16:09.959Z,23.40
2017-07-18T20:18:36.352Z,23.40
2017-07-18T20:21:03.141Z,23.40
2017-07-18T20:23:29.947Z,23.40
2017-07-18T20:25:56.359Z,23.30
2017-07-18T20:28:22.784Z,23.30
2017-07-18T20:30:49.219Z,23.30
2017-07-18T20:33:16.396Z,23.20
2017-07-18T20:35:42.832Z,23.20
2017-07-18T20:38:09.219Z,23.20
2017-07-18T20:40:35.598Z,23.20
2017-07-18T20:43:02.307Z,23.10
2017-07-18T20:45:29.045Z,23.10
2017-07-18T20:47:55.462Z,23.00
2017-07-18T20:50:21.824Z,23.00
2017-07-18T20:52:48.307Z,23.00
2017-07-18T20:55:14.696Z,22.90
2017-07-18T20:57:41.058Z,22.90
2017-07-18T21:00:07.952Z,22.90
2017-07-18T21:02:34.423Z,22.70
2017-07-18T21:05:00.804Z,22.70
2017-07-18T21:07:27.483Z,22.60
2017-07-18T21:09:53.991Z,22.50
2017-07-18T21:12:21.175Z,22.40
2017-07-18T21:14:47.595Z,22.40
2017-07-18T21:17:14.224Z,22.40
2017-07-18T21:19:40.724Z,22.40
2017-07-18T21:22:08.103Z,22.30
2017-07-18T21:24:34.723Z,22.30
2017-07-18T21:27:01.287Z,22.30
2017-07-18T21:29:27.827Z,22.20
2017-07-18T21:31:54.247Z,22.10
2017-07-18T21:34:20.707Z,22.00
2017-07-18T21:36:47.112Z,22.00
2017-07-18T21:39:13.682Z,22.00
2017-07-18T21:41:40.208Z,21.90
2017-07-18T21:44:06.702Z,21.80
2017-07-18T21:46:33.831Z,21.80
2017-07-18T21:49:00.203Z,21.70
2017-07-18T21:51:26.611Z,21.70
2017-07-18T21:53:53.122Z,21.70
2017-07-18T21:56:19.494Z,21.70
2017-07-18T21:58:46.622Z,21.70
2017-07-18T22:01:13.039Z,21.60
2017-07-18T22:03:39.463Z,21.60
2017-07-18T22:06:05.835Z,21.50
2017-07-18T22:08:32.282Z,21.50
2017-07-18T22:10:58.656Z,21.40
2017-07-18T22:13:25.055Z,21.40
2017-07-18T22:15:51.474Z,21.40
2017-07-18T22:18:18.608Z,21.40
2017-07-18T22:20:44.999Z,21.40
2017-07-18T22:23:11.623Z,21.40
2017-07-18T22:25:38.154Z,21.40
2017-07-18T22:28:04.531Z,21.30
2017-07-18T22:30:31.058Z,21.30
2017-07-18T22:32:57.559Z,21.30
2017-07-18T22:35:24.311Z,21.30
2017-07-18T22:37:50.786Z,21.20
2017-07-18T22:40:17.199Z,21.20
2017-07-18T22:42:43.591Z,21.20
2017-07-18T22:45:09.988Z,21.10
2017-07-18T22:47:37.371Z,21.10
2017-07-18T22:50:03.828Z,21.10
2017-07-18T22:52:30.423Z,21.00
2017-07-18T22:54:57.556Z,20.90
2017-07-18T22:57:23.980Z,20.90
2017-07-18T22:59:50.443Z,20.90
2017-07-18T23:02:17.604Z,20.90
2017-07-18T23:04:44.007Z,20.90
2017-07-18T23:07:10.654Z,20.80
2017-07-18T23:09:37.208Z,20.80
2017-07-18T23:12:03.599Z,20.80
2017-07-18T23:14:29.975Z,20.80
2017-07-18T23:16:56.404Z,20.80
2017-07-18T23:19:22.780Z,20.80
2017-07-18T23:21:49.198Z,20.70
2017-07-18T23:24:15.611Z,20.60
2017-07-18T23:26:42.103Z,20.50
2017-07-18T23:29:08.486Z,20.50
2017-07-18T23:31:34.871Z,20.50
2017-07-18T23:34:01.367Z,20.50
2017-07-18T23:36:27.782Z,20.50
2017-07-18T23:38:54.428Z,20.50
2017-07-18T23:41:21.235Z,20.50
2017-07-18T23:43:47.711Z,20.50
2017-07-18T23:46:14.099Z,20.50
2017-07-18T23:48:41.271Z,20.60
2017-07-18T23:51:07.652Z,20.60
2017-07-18T23:53:34.152Z,20.60
2017-07-18T23:56:00.576Z,20.60
2017-07-18T23:58:26.943Z,20.60
